Westport, Oklahoma
Current Conditions -  °F | °C
As of 4:15 PM on Saturday 20 Dec 2014 (Local Time) from KOWP Reporting Station
Overcast Overcast  
Wind Chill: 44°   Ceiling: 2300
Heat Index: 46°   Visibility: 10mi
Dew Point: 36°   Wind: 5mph
Humidity: 66%   Direction: 200°SSW
Pressure: 30.17"   Gusts: NA
Location:  36.248°N, 96.4789°W
Report Text: KOWP 202215Z AUTO 20004KT 10SM OVC023 08/02 A3017 RMK AO2 T00790020
Loading
Personal Weather Stations






























Interactive Weather Map New forecast layout! Learn more

10-Day Weather Forecast

Advertisements
Track Severe Weather on mobile